METAR AND TAF INFORMATION
METAR FOR PADK
ADDS - METARS form results

(1907 UTC 20 June 2019)
Data provider http://aviationweather.gov/metar/data/
 
METAR text: PADK 201856Z AUTO 00000KT 10SM OVC006 07/06 A3040 RMK AO2 SLP294 T00720056
Conditions at: PADK (ADAK NAS , AK, US) observed 1856 UTC 20 June 2019
Temperature: 7.2°C (45°F)
Dewpoint: 5.6°C (42°F) [RH = 90%]
Pressure (altimeter): 30.40 inches Hg (1029.5 mb)
[Sea-level pressure: 1029.4 mb]
Winds: calm
Visibility: 10 or more miles (16+ km)
Ceiling: 600 feet AGL
Clouds: overcast cloud deck at 600 feet AGL
Weather: automated observation with no human augmentation;
there may or may not be significant weather present at this time

 AIRPORT MAP

 RUNWAY INFORMATION
Runway 05 Runway length 7790 ft Runway width 200 ft
Runway elevation 17 ft Runway displaced threshold 0 ft Runway heading 61
Runway 23 Runway length 7790 ft Runway width 200 ft
Runway elevation 15 ft Runway displaced threshold 0 ft Runway heading 241
Runway 18 Runway length 7605 ft Runway width 200 ft
Runway elevation 6 ft Runway displaced threshold 0 ft Runway heading 185
Runway 36 Runway length 7605 ft Runway width 200 ft
Runway elevation 4 ft Runway displaced threshold 0 ft Runway heading 5

 AIRPORT FREQUENCIES

 AIRPORT NEAR NAVIGATION AIDS
Type NDB-DME Name Mount Moffett Frequency 530 KHZ
Type TACAN Name Adak Frequency 113000 KHZ



Powered by Virtual Airlines Manager [v2.6.2]